sensor_id;sensor_type;location;lat;lon;timestamp;P1;durP1;ratioP1;P2;durP2;ratioP2
8909;SDS011;4490;49.072;8.804;2023-07-29T00:01:20;1.77;;;1.67;;
8909;SDS011;4490;49.072;8.804;2023-07-29T00:03:45;4.43;;;1.60;;
8909;SDS011;4490;49.072;8.804;2023-07-29T00:06:11;5.10;;;1.87;;
8909;SDS011;4490;49.072;8.804;2023-07-29T00:08:36;7.73;;;1.87;;
8909;SDS011;4490;49.072;8.804;2023-07-29T00:11:02;3.83;;;1.70;;
8909;SDS011;4490;49.072;8.804;2023-07-29T00:13:28;2.47;;;2.27;;
8909;SDS011;4490;49.072;8.804;2023-07-29T00:15:54;1.90;;;1.80;;
8909;SDS011;4490;49.072;8.804;2023-07-29T00:18:21;3.13;;;1.55;;
8909;SDS011;4490;49.072;8.804;2023-07-29T00:20:47;2.23;;;1.77;;
8909;SDS011;4490;49.072;8.804;2023-07-29T00:23:13;2.90;;;1.90;;
8909;SDS011;4490;49.072;8.804;2023-07-29T00:25:38;2.87;;;1.80;;
8909;SDS011;4490;49.072;8.804;2023-07-29T00:28:04;4.63;;;1.73;;
8909;SDS011;4490;49.072;8.804;2023-07-29T00:30:30;3.47;;;2.07;;
8909;SDS011;4490;49.072;8.804;2023-07-29T00:32:55;3.10;;;1.70;;
8909;SDS011;4490;49.072;8.804;2023-07-29T00:35:21;4.70;;;1.73;;
8909;SDS011;4490;49.072;8.804;2023-07-29T00:37:46;4.40;;;1.90;;
8909;SDS011;4490;49.072;8.804;2023-07-29T00:40:20;2.77;;;1.90;;
8909;SDS011;4490;49.072;8.804;2023-07-29T00:42:46;2.63;;;1.80;;
8909;SDS011;4490;49.072;8.804;2023-07-29T00:45:12;1.90;;;1.80;;
8909;SDS011;4490;49.072;8.804;2023-07-29T00:47:38;5.43;;;1.75;;
8909;SDS011;4490;49.072;8.804;2023-07-29T00:50:06;1.90;;;1.70;;
8909;SDS011;4490;49.072;8.804;2023-07-29T00:52:33;1.77;;;1.67;;
8909;SDS011;4490;49.072;8.804;2023-07-29T00:54:59;2.63;;;1.70;;
8909;SDS011;4490;49.072;8.804;2023-07-29T00:57:25;4.50;;;1.70;;
8909;SDS011;4490;49.072;8.804;2023-07-29T00:59:51;1.60;;;1.50;;
8909;SDS011;4490;49.072;8.804;2023-07-29T01:02:17;4.00;;;1.70;;
8909;SDS011;4490;49.072;8.804;2023-07-29T01:04:43;1.70;;;1.60;;
8909;SDS011;4490;49.072;8.804;2023-07-29T01:10:01;2.57;;;1.70;;
8909;SDS011;4490;49.072;8.804;2023-07-29T01:17:59;1.80;;;1.60;;
8909;SDS011;4490;49.072;8.804;2023-07-29T01:20:29;2.03;;;1.83;;
8909;SDS011;4490;49.072;8.804;2023-07-29T01:22:59;6.93;;;1.90;;
8909;SDS011;4490;49.072;8.804;2023-07-29T01:25:24;5.87;;;2.00;;
8909;SDS011;4490;49.072;8.804;2023-07-29T01:27:51;7.17;;;1.67;;
8909;SDS011;4490;49.072;8.804;2023-07-29T01:30:17;3.87;;;1.53;;
8909;SDS011;4490;49.072;8.804;2023-07-29T01:33:04;3.70;;;1.60;;
8909;SDS011;4490;49.072;8.804;2023-07-29T01:35:46;2.67;;;1.50;;
8909;SDS011;4490;49.072;8.804;2023-07-29T01:38:19;2.63;;;1.63;;
8909;SDS011;4490;49.072;8.804;2023-07-29T01:40:49;3.47;;;1.60;;
8909;SDS011;4490;49.072;8.804;2023-07-29T01:43:16;2.53;;;1.73;;
8909;SDS011;4490;49.072;8.804;2023-07-29T01:45:44;4.80;;;1.80;;
8909;SDS011;4490;49.072;8.804;2023-07-29T01:48:09;2.90;;;1.50;;
8909;SDS011;4490;49.072;8.804;2023-07-29T01:50:35;2.13;;;1.70;;
8909;SDS011;4490;49.072;8.804;2023-07-29T01:53:00;2.30;;;1.80;;
8909;SDS011;4490;49.072;8.804;2023-07-29T01:55:26;2.00;;;1.58;;
8909;SDS011;4490;49.072;8.804;2023-07-29T01:57:52;2.80;;;1.60;;
8909;SDS011;4490;49.072;8.804;2023-07-29T02:00:18;1.75;;;1.65;;
8909;SDS011;4490;49.072;8.804;2023-07-29T02:02:44;3.40;;;1.77;;
8909;SDS011;4490;49.072;8.804;2023-07-29T02:05:10;9.40;;;1.90;;
8909;SDS011;4490;49.072;8.804;2023-07-29T02:07:35;2.70;;;1.60;;
8909;SDS011;4490;49.072;8.804;2023-07-29T02:10:01;1.77;;;1.67;;
8909;SDS011;4490;49.072;8.804;2023-07-29T02:12:27;7.13;;;1.90;;
8909;SDS011;4490;49.072;8.804;2023-07-29T02:14:52;3.13;;;1.60;;
8909;SDS011;4490;49.072;8.804;2023-07-29T02:17:18;2.50;;;1.80;;
8909;SDS011;4490;49.072;8.804;2023-07-29T02:19:43;4.40;;;2.05;;
8909;SDS011;4490;49.072;8.804;2023-07-29T02:22:10;2.70;;;1.87;;
8909;SDS011;4490;49.072;8.804;2023-07-29T02:24:39;2.57;;;1.90;;
8909;SDS011;4490;49.072;8.804;2023-07-29T02:27:05;2.27;;;1.90;;
8909;SDS011;4490;49.072;8.804;2023-07-29T02:29:31;2.93;;;1.80;;
8909;SDS011;4490;49.072;8.804;2023-07-29T02:31:58;1.70;;;1.60;;
8909;SDS011;4490;49.072;8.804;2023-07-29T02:34:24;7.00;;;1.90;;
8909;SDS011;4490;49.072;8.804;2023-07-29T02:36:50;3.53;;;1.93;;
8909;SDS011;4490;49.072;8.804;2023-07-29T02:39:15;4.57;;;1.80;;
8909;SDS011;4490;49.072;8.804;2023-07-29T02:41:41;3.37;;;2.10;;
8909;SDS011;4490;49.072;8.804;2023-07-29T02:44:06;5.23;;;2.07;;
8909;SDS011;4490;49.072;8.804;2023-07-29T02:46:32;4.77;;;1.90;;
8909;SDS011;4490;49.072;8.804;2023-07-29T02:48:57;3.03;;;2.13;;
8909;SDS011;4490;49.072;8.804;2023-07-29T02:51:24;3.73;;;1.60;;
8909;SDS011;4490;49.072;8.804;2023-07-29T02:53:49;4.73;;;2.20;;
8909;SDS011;4490;49.072;8.804;2023-07-29T02:56:15;3.63;;;1.87;;
8909;SDS011;4490;49.072;8.804;2023-07-29T02:58:41;2.87;;;2.00;;
8909;SDS011;4490;49.072;8.804;2023-07-29T03:01:08;3.13;;;1.80;;
8909;SDS011;4490;49.072;8.804;2023-07-29T03:03:33;2.20;;;2.00;;
8909;SDS011;4490;49.072;8.804;2023-07-29T03:06:06;1.90;;;1.80;;
8909;SDS011;4490;49.072;8.804;2023-07-29T03:08:33;4.40;;;1.87;;
8909;SDS011;4490;49.072;8.804;2023-07-29T03:11:04;4.37;;;2.10;;
8909;SDS011;4490;49.072;8.804;2023-07-29T03:13:37;2.28;;;2.00;;
8909;SDS011;4490;49.072;8.804;2023-07-29T03:16:13;2.65;;;1.65;;
8909;SDS011;4490;49.072;8.804;2023-07-29T03:18:39;1.90;;;1.80;;
8909;SDS011;4490;49.072;8.804;2023-07-29T03:21:07;7.40;;;1.70;;
8909;SDS011;4490;49.072;8.804;2023-07-29T03:23:33;3.00;;;1.80;;
8909;SDS011;4490;49.072;8.804;2023-07-29T03:25:59;4.20;;;2.00;;
8909;SDS011;4490;49.072;8.804;2023-07-29T03:28:26;2.67;;;2.15;;
8909;SDS011;4490;49.072;8.804;2023-07-29T03:30:53;2.20;;;1.90;;
8909;SDS011;4490;49.072;8.804;2023-07-29T03:33:19;2.05;;;1.95;;
8909;SDS011;4490;49.072;8.804;2023-07-29T03:35:45;3.20;;;1.97;;
8909;SDS011;4490;49.072;8.804;2023-07-29T03:38:11;3.53;;;1.80;;
8909;SDS011;4490;49.072;8.804;2023-07-29T03:40:38;3.92;;;2.00;;
8909;SDS011;4490;49.072;8.804;2023-07-29T03:43:04;2.45;;;1.67;;
8909;SDS011;4490;49.072;8.804;2023-07-29T03:45:29;4.35;;;1.95;;
8909;SDS011;4490;49.072;8.804;2023-07-29T03:47:55;6.00;;;1.90;;
8909;SDS011;4490;49.072;8.804;2023-07-29T03:50:21;2.58;;;1.70;;
8909;SDS011;4490;49.072;8.804;2023-07-29T03:52:46;3.60;;;1.90;;
8909;SDS011;4490;49.072;8.804;2023-07-29T03:55:12;2.38;;;2.17;;
8909;SDS011;4490;49.072;8.804;2023-07-29T03:57:38;6.75;;;2.60;;
8909;SDS011;4490;49.072;8.804;2023-07-29T04:00:04;2.47;;;2.25;;
8909;SDS011;4490;49.072;8.804;2023-07-29T04:02:30;2.53;;;1.97;;
8909;SDS011;4490;49.072;8.804;2023-07-29T04:04:56;5.25;;;1.90;;
8909;SDS011;4490;49.072;8.804;2023-07-29T04:07:22;2.80;;;1.85;;
8909;SDS011;4490;49.072;8.804;2023-07-29T04:09:47;5.85;;;2.13;;
8909;SDS011;4490;49.072;8.804;2023-07-29T04:12:14;2.88;;;1.75;;
8909;SDS011;4490;49.072;8.804;2023-07-29T04:14:40;5.07;;;1.90;;
8909;SDS011;4490;49.072;8.804;2023-07-29T04:17:05;4.83;;;2.33;;
8909;SDS011;4490;49.072;8.804;2023-07-29T04:19:31;2.60;;;1.97;;
8909;SDS011;4490;49.072;8.804;2023-07-29T04:21:57;3.80;;;1.87;;
8909;SDS011;4490;49.072;8.804;2023-07-29T04:24:23;2.00;;;1.77;;
8909;SDS011;4490;49.072;8.804;2023-07-29T04:26:49;2.33;;;2.13;;
8909;SDS011;4490;49.072;8.804;2023-07-29T04:29:14;3.40;;;2.10;;
8909;SDS011;4490;49.072;8.804;2023-07-29T04:31:40;10.20;;;2.92;;
8909;SDS011;4490;49.072;8.804;2023-07-29T04:34:05;6.10;;;2.28;;
8909;SDS011;4490;49.072;8.804;2023-07-29T04:36:31;3.77;;;2.00;;
8909;SDS011;4490;49.072;8.804;2023-07-29T04:38:57;2.60;;;2.17;;
8909;SDS011;4490;49.072;8.804;2023-07-29T04:41:23;6.63;;;2.70;;
8909;SDS011;4490;49.072;8.804;2023-07-29T04:43:48;3.35;;;2.08;;
8909;SDS011;4490;49.072;8.804;2023-07-29T04:46:14;3.80;;;2.20;;
8909;SDS011;4490;49.072;8.804;2023-07-29T04:48:40;5.67;;;2.17;;
8909;SDS011;4490;49.072;8.804;2023-07-29T04:51:06;4.47;;;2.03;;
8909;SDS011;4490;49.072;8.804;2023-07-29T04:53:31;4.32;;;2.40;;
8909;SDS011;4490;49.072;8.804;2023-07-29T04:55:57;7.10;;;2.15;;
8909;SDS011;4490;49.072;8.804;2023-07-29T04:58:23;6.40;;;2.08;;
8909;SDS011;4490;49.072;8.804;2023-07-29T05:00:49;5.03;;;2.22;;
8909;SDS011;4490;49.072;8.804;2023-07-29T05:03:14;6.70;;;2.20;;
8909;SDS011;4490;49.072;8.804;2023-07-29T05:05:40;3.37;;;2.77;;
8909;SDS011;4490;49.072;8.804;2023-07-29T05:08:05;2.93;;;2.10;;
8909;SDS011;4490;49.072;8.804;2023-07-29T05:10:31;3.80;;;2.20;;
8909;SDS011;4490;49.072;8.804;2023-07-29T05:12:57;2.83;;;2.20;;
8909;SDS011;4490;49.072;8.804;2023-07-29T05:15:22;5.23;;;2.30;;
8909;SDS011;4490;49.072;8.804;2023-07-29T05:17:48;3.67;;;2.60;;
8909;SDS011;4490;49.072;8.804;2023-07-29T05:20:13;4.93;;;2.13;;
8909;SDS011;4490;49.072;8.804;2023-07-29T05:22:39;2.60;;;2.40;;
8909;SDS011;4490;49.072;8.804;2023-07-29T05:25:05;4.72;;;2.58;;
8909;SDS011;4490;49.072;8.804;2023-07-29T05:27:31;2.67;;;2.35;;
8909;SDS011;4490;49.072;8.804;2023-07-29T05:29:56;3.47;;;2.38;;
8909;SDS011;4490;49.072;8.804;2023-07-29T05:32:22;2.55;;;2.30;;
8909;SDS011;4490;49.072;8.804;2023-07-29T05:34:48;3.83;;;2.35;;
8909;SDS011;4490;49.072;8.804;2023-07-29T05:37:13;4.93;;;2.40;;
8909;SDS011;4490;49.072;8.804;2023-07-29T05:39:39;2.65;;;2.10;;
8909;SDS011;4490;49.072;8.804;2023-07-29T05:42:05;3.65;;;2.40;;
8909;SDS011;4490;49.072;8.804;2023-07-29T05:44:31;3.38;;;2.30;;
8909;SDS011;4490;49.072;8.804;2023-07-29T05:46:56;3.38;;;2.42;;
8909;SDS011;4490;49.072;8.804;2023-07-29T05:49:22;2.50;;;2.17;;
8909;SDS011;4490;49.072;8.804;2023-07-29T05:51:48;4.78;;;2.45;;
8909;SDS011;4490;49.072;8.804;2023-07-29T05:54:15;6.38;;;2.30;;
8909;SDS011;4490;49.072;8.804;2023-07-29T05:56:42;3.28;;;2.30;;
8909;SDS011;4490;49.072;8.804;2023-07-29T05:59:08;3.25;;;2.35;;
8909;SDS011;4490;49.072;8.804;2023-07-29T06:01:33;3.80;;;2.30;;
8909;SDS011;4490;49.072;8.804;2023-07-29T06:03:59;3.10;;;1.95;;
8909;SDS011;4490;49.072;8.804;2023-07-29T06:06:26;2.92;;;1.90;;
8909;SDS011;4490;49.072;8.804;2023-07-29T06:08:51;2.45;;;2.20;;
8909;SDS011;4490;49.072;8.804;2023-07-29T06:11:17;2.63;;;2.42;;
8909;SDS011;4490;49.072;8.804;2023-07-29T06:13:43;3.45;;;2.63;;
8909;SDS011;4490;49.072;8.804;2023-07-29T06:16:08;2.60;;;2.40;;
8909;SDS011;4490;49.072;8.804;2023-07-29T06:18:34;2.60;;;2.40;;
8909;SDS011;4490;49.072;8.804;2023-07-29T06:21:00;4.45;;;2.40;;
8909;SDS011;4490;49.072;8.804;2023-07-29T06:23:25;2.92;;;2.20;;
8909;SDS011;4490;49.072;8.804;2023-07-29T06:25:51;3.40;;;2.00;;
8909;SDS011;4490;49.072;8.804;2023-07-29T06:28:16;3.28;;;2.20;;
8909;SDS011;4490;49.072;8.804;2023-07-29T06:30:42;2.85;;;2.40;;
8909;SDS011;4490;49.072;8.804;2023-07-29T06:33:07;2.20;;;1.80;;
8909;SDS011;4490;49.072;8.804;2023-07-29T06:35:34;3.10;;;1.98;;
8909;SDS011;4490;49.072;8.804;2023-07-29T06:37:59;2.97;;;2.00;;
8909;SDS011;4490;49.072;8.804;2023-07-29T06:40:25;2.42;;;2.22;;
8909;SDS011;4490;49.072;8.804;2023-07-29T06:42:51;2.85;;;1.80;;
8909;SDS011;4490;49.072;8.804;2023-07-29T06:45:16;2.22;;;2.03;;
8909;SDS011;4490;49.072;8.804;2023-07-29T06:47:42;3.55;;;1.77;;
8909;SDS011;4490;49.072;8.804;2023-07-29T06:50:08;2.90;;;2.08;;
8909;SDS011;4490;49.072;8.804;2023-07-29T06:52:34;2.53;;;2.33;;
8909;SDS011;4490;49.072;8.804;2023-07-29T06:54:59;2.80;;;2.22;;
8909;SDS011;4490;49.072;8.804;2023-07-29T06:57:25;2.70;;;2.28;;
8909;SDS011;4490;49.072;8.804;2023-07-29T06:59:50;2.53;;;2.28;;
8909;SDS011;4490;49.072;8.804;2023-07-29T07:02:16;3.17;;;2.30;;
8909;SDS011;4490;49.072;8.804;2023-07-29T07:04:42;3.97;;;2.00;;
8909;SDS011;4490;49.072;8.804;2023-07-29T07:07:07;4.45;;;2.33;;
8909;SDS011;4490;49.072;8.804;2023-07-29T07:09:33;2.45;;;2.10;;
8909;SDS011;4490;49.072;8.804;2023-07-29T07:11:58;2.28;;;2.10;;
8909;SDS011;4490;49.072;8.804;2023-07-29T07:14:24;2.40;;;2.20;;
8909;SDS011;4490;49.072;8.804;2023-07-29T07:16:50;4.00;;;2.40;;
8909;SDS011;4490;49.072;8.804;2023-07-29T07:19:16;2.63;;;2.38;;
8909;SDS011;4490;49.072;8.804;2023-07-29T07:21:41;2.35;;;2.15;;
8909;SDS011;4490;49.072;8.804;2023-07-29T07:24:07;3.17;;;2.35;;
8909;SDS011;4490;49.072;8.804;2023-07-29T07:26:32;1.92;;;1.83;;
8909;SDS011;4490;49.072;8.804;2023-07-29T07:28:58;3.20;;;2.40;;
8909;SDS011;4490;49.072;8.804;2023-07-29T07:31:24;4.10;;;2.17;;
8909;SDS011;4490;49.072;8.804;2023-07-29T07:33:49;2.38;;;2.03;;
8909;SDS011;4490;49.072;8.804;2023-07-29T07:36:15;2.35;;;2.00;;
8909;SDS011;4490;49.072;8.804;2023-07-29T07:38:40;2.90;;;2.58;;
8909;SDS011;4490;49.072;8.804;2023-07-29T07:41:06;2.28;;;2.00;;
8909;SDS011;4490;49.072;8.804;2023-07-29T07:43:32;2.45;;;2.05;;
8909;SDS011;4490;49.072;8.804;2023-07-29T07:45:58;2.40;;;2.20;;
8909;SDS011;4490;49.072;8.804;2023-07-29T07:48:25;2.42;;;2.08;;
8909;SDS011;4490;49.072;8.804;2023-07-29T07:50:51;2.90;;;2.10;;
8909;SDS011;4490;49.072;8.804;2023-07-29T07:53:16;3.67;;;2.10;;
8909;SDS011;4490;49.072;8.804;2023-07-29T07:55:42;2.42;;;2.08;;
8909;SDS011;4490;49.072;8.804;2023-07-29T07:58:11;4.63;;;1.80;;
8909;SDS011;4490;49.072;8.804;2023-07-29T08:00:39;2.35;;;1.92;;
8909;SDS011;4490;49.072;8.804;2023-07-29T08:03:05;2.53;;;1.80;;
8909;SDS011;4490;49.072;8.804;2023-07-29T08:05:31;1.88;;;1.70;;
8909;SDS011;4490;49.072;8.804;2023-07-29T08:07:57;1.85;;;1.75;;
8909;SDS011;4490;49.072;8.804;2023-07-29T08:10:22;2.47;;;2.00;;
8909;SDS011;4490;49.072;8.804;2023-07-29T08:12:48;2.58;;;1.90;;
8909;SDS011;4490;49.072;8.804;2023-07-29T08:15:14;2.40;;;2.00;;
8909;SDS011;4490;49.072;8.804;2023-07-29T08:17:39;4.00;;;2.33;;
8909;SDS011;4490;49.072;8.804;2023-07-29T08:20:05;2.25;;;1.52;;
8909;SDS011;4490;49.072;8.804;2023-07-29T08:22:31;1.83;;;1.73;;
8909;SDS011;4490;49.072;8.804;2023-07-29T08:24:58;2.40;;;2.00;;
8909;SDS011;4490;49.072;8.804;2023-07-29T08:27:24;2.20;;;2.00;;
8909;SDS011;4490;49.072;8.804;2023-07-29T08:29:49;1.60;;;1.50;;
8909;SDS011;4490;49.072;8.804;2023-07-29T08:32:15;2.20;;;2.10;;
8909;SDS011;4490;49.072;8.804;2023-07-29T08:34:40;3.83;;;1.90;;
8909;SDS011;4490;49.072;8.804;2023-07-29T08:37:06;2.25;;;1.92;;
8909;SDS011;4490;49.072;8.804;2023-07-29T08:39:32;2.42;;;2.20;;
8909;SDS011;4490;49.072;8.804;2023-07-29T08:41:59;2.80;;;2.15;;
8909;SDS011;4490;49.072;8.804;2023-07-29T08:44:30;2.17;;;1.80;;
8909;SDS011;4490;49.072;8.804;2023-07-29T08:47:02;2.08;;;1.98;;
8909;SDS011;4490;49.072;8.804;2023-07-29T08:49:28;2.13;;;1.92;;
8909;SDS011;4490;49.072;8.804;2023-07-29T08:51:54;5.13;;;1.95;;
8909;SDS011;4490;49.072;8.804;2023-07-29T08:54:23;2.28;;;2.08;;
8909;SDS011;4490;49.072;8.804;2023-07-29T08:56:48;1.95;;;1.83;;
8909;SDS011;4490;49.072;8.804;2023-07-29T08:59:15;2.17;;;1.75;;
8909;SDS011;4490;49.072;8.804;2023-07-29T09:01:42;1.90;;;1.80;;
8909;SDS011;4490;49.072;8.804;2023-07-29T09:04:08;2.30;;;1.75;;
8909;SDS011;4490;49.072;8.804;2023-07-29T09:06:35;2.15;;;2.00;;
8909;SDS011;4490;49.072;8.804;2023-07-29T09:09:03;1.70;;;1.60;;
8909;SDS011;4490;49.072;8.804;2023-07-29T09:11:28;1.80;;;1.70;;
8909;SDS011;4490;49.072;8.804;2023-07-29T09:13:55;1.60;;;1.50;;
8909;SDS011;4490;49.072;8.804;2023-07-29T09:16:20;2.85;;;1.88;;
8909;SDS011;4490;49.072;8.804;2023-07-29T09:18:50;1.67;;;1.58;;
8909;SDS011;4490;49.072;8.804;2023-07-29T09:21:23;2.00;;;1.77;;
8909;SDS011;4490;49.072;8.804;2023-07-29T09:23:53;2.35;;;1.77;;
8909;SDS011;4490;49.072;8.804;2023-07-29T09:26:24;1.65;;;1.55;;
8909;SDS011;4490;49.072;8.804;2023-07-29T09:28:54;2.17;;;1.80;;
8909;SDS011;4490;49.072;8.804;2023-07-29T09:31:22;1.77;;;1.67;;
8909;SDS011;4490;49.072;8.804;2023-07-29T09:33:49;2.38;;;1.90;;
8909;SDS011;4490;49.072;8.804;2023-07-29T09:36:21;1.85;;;1.70;;
8909;SDS011;4490;49.072;8.804;2023-07-29T09:38:47;1.70;;;1.60;;
8909;SDS011;4490;49.072;8.804;2023-07-29T09:41:13;3.88;;;1.80;;
8909;SDS011;4490;49.072;8.804;2023-07-29T09:43:40;2.55;;;1.80;;
8909;SDS011;4490;49.072;8.804;2023-07-29T09:46:06;1.95;;;1.85;;
8909;SDS011;4490;49.072;8.804;2023-07-29T09:48:35;2.17;;;1.77;;
8909;SDS011;4490;49.072;8.804;2023-07-29T09:51:11;2.08;;;1.88;;
8909;SDS011;4490;49.072;8.804;2023-07-29T09:53:44;1.80;;;1.60;;
8909;SDS011;4490;49.072;8.804;2023-07-29T09:56:12;3.00;;;1.88;;
8909;SDS011;4490;49.072;8.804;2023-07-29T09:58:38;2.00;;;1.90;;
8909;SDS011;4490;49.072;8.804;2023-07-29T10:01:07;1.92;;;1.83;;
8909;SDS011;4490;49.072;8.804;2023-07-29T10:03:34;2.65;;;1.58;;
8909;SDS011;4490;49.072;8.804;2023-07-29T10:06:04;2.42;;;1.60;;
8909;SDS011;4490;49.072;8.804;2023-07-29T10:08:30;2.42;;;1.52;;
8909;SDS011;4490;49.072;8.804;2023-07-29T10:11:06;1.70;;;1.60;;
8909;SDS011;4490;49.072;8.804;2023-07-29T10:13:33;1.75;;;1.65;;
8909;SDS011;4490;49.072;8.804;2023-07-29T10:15:59;1.58;;;1.45;;
8909;SDS011;4490;49.072;8.804;2023-07-29T10:18:28;1.70;;;1.60;;
8909;SDS011;4490;49.072;8.804;2023-07-29T10:20:56;2.30;;;1.60;;
8909;SDS011;4490;49.072;8.804;2023-07-29T10:23:24;1.70;;;1.48;;
8909;SDS011;4490;49.072;8.804;2023-07-29T10:26:06;1.50;;;1.40;;
8909;SDS011;4490;49.072;8.804;2023-07-29T10:28:35;3.08;;;1.40;;
8909;SDS011;4490;49.072;8.804;2023-07-29T10:31:05;1.80;;;1.70;;
8909;SDS011;4490;49.072;8.804;2023-07-29T10:33:31;1.98;;;1.75;;
8909;SDS011;4490;49.072;8.804;2023-07-29T10:35:58;2.67;;;1.70;;
8909;SDS011;4490;49.072;8.804;2023-07-29T10:38:24;1.85;;;1.75;;
8909;SDS011;4490;49.072;8.804;2023-07-29T10:40:56;2.30;;;1.65;;
8909;SDS011;4490;49.072;8.804;2023-07-29T10:43:26;4.30;;;1.67;;
8909;SDS011;4490;49.072;8.804;2023-07-29T10:46:16;1.90;;;1.80;;
8909;SDS011;4490;49.072;8.804;2023-07-29T10:48:52;1.70;;;1.60;;
8909;SDS011;4490;49.072;8.804;2023-07-29T10:54:01;2.08;;;1.98;;
8909;SDS011;4490;49.072;8.804;2023-07-29T10:56:35;1.58;;;1.48;;
8909;SDS011;4490;49.072;8.804;2023-07-29T11:01:54;1.50;;;1.40;;
8909;SDS011;4490;49.072;8.804;2023-07-29T11:04:23;2.17;;;1.50;;
8909;SDS011;4490;49.072;8.804;2023-07-29T11:15:17;2.97;;;1.40;;
8909;SDS011;4490;49.072;8.804;2023-07-29T11:20:21;1.50;;;1.30;;
8909;SDS011;4490;49.072;8.804;2023-07-29T11:22:52;1.95;;;1.35;;
8909;SDS011;4490;49.072;8.804;2023-07-29T11:25:19;1.60;;;1.50;;
8909;SDS011;4490;49.072;8.804;2023-07-29T11:27:46;1.83;;;1.73;;
8909;SDS011;4490;49.072;8.804;2023-07-29T11:30:12;1.70;;;1.60;;
8909;SDS011;4490;49.072;8.804;2023-07-29T11:32:39;1.65;;;1.55;;
8909;SDS011;4490;49.072;8.804;2023-07-29T11:35:13;1.58;;;1.48;;
8909;SDS011;4490;49.072;8.804;2023-07-29T11:37:40;1.60;;;1.50;;
8909;SDS011;4490;49.072;8.804;2023-07-29T11:40:07;2.42;;;1.60;;
8909;SDS011;4490;49.072;8.804;2023-07-29T11:42:35;1.98;;;1.70;;
8909;SDS011;4490;49.072;8.804;2023-07-29T11:45:02;1.90;;;1.67;;
8909;SDS011;4490;49.072;8.804;2023-07-29T11:47:31;2.97;;;1.75;;
8909;SDS011;4490;49.072;8.804;2023-07-29T11:50:00;1.80;;;1.70;;
8909;SDS011;4490;49.072;8.804;2023-07-29T11:52:27;3.40;;;1.80;;
8909;SDS011;4490;49.072;8.804;2023-07-29T11:54:53;1.90;;;1.80;;
8909;SDS011;4490;49.072;8.804;2023-07-29T11:57:19;3.10;;;1.70;;
8909;SDS011;4490;49.072;8.804;2023-07-29T11:59:46;1.80;;;1.70;;
8909;SDS011;4490;49.072;8.804;2023-07-29T12:02:19;1.70;;;1.60;;
8909;SDS011;4490;49.072;8.804;2023-07-29T12:04:46;2.00;;;1.90;;
8909;SDS011;4490;49.072;8.804;2023-07-29T12:07:13;1.77;;;1.67;;
8909;SDS011;4490;49.072;8.804;2023-07-29T12:09:40;2.35;;;1.58;;
8909;SDS011;4490;49.072;8.804;2023-07-29T12:12:07;2.17;;;1.60;;
8909;SDS011;4490;49.072;8.804;2023-07-29T12:14:33;1.80;;;1.70;;
8909;SDS011;4490;49.072;8.804;2023-07-29T12:17:02;2.25;;;1.70;;
8909;SDS011;4490;49.072;8.804;2023-07-29T12:19:32;1.60;;;1.50;;
8909;SDS011;4490;49.072;8.804;2023-07-29T12:22:03;1.70;;;1.60;;
8909;SDS011;4490;49.072;8.804;2023-07-29T12:24:33;1.80;;;1.70;;
8909;SDS011;4490;49.072;8.804;2023-07-29T12:27:01;1.90;;;1.80;;
8909;SDS011;4490;49.072;8.804;2023-07-29T12:29:27;2.47;;;1.70;;
8909;SDS011;4490;49.072;8.804;2023-07-29T12:31:57;2.97;;;1.95;;
8909;SDS011;4490;49.072;8.804;2023-07-29T12:34:29;1.67;;;1.58;;
8909;SDS011;4490;49.072;8.804;2023-07-29T12:36:56;2.03;;;1.80;;
8909;SDS011;4490;49.072;8.804;2023-07-29T12:39:24;2.33;;;1.80;;
8909;SDS011;4490;49.072;8.804;2023-07-29T12:41:54;2.17;;;1.98;;
8909;SDS011;4490;49.072;8.804;2023-07-29T12:44:23;1.98;;;1.88;;
8909;SDS011;4490;49.072;8.804;2023-07-29T12:46:49;3.83;;;1.88;;
8909;SDS011;4490;49.072;8.804;2023-07-29T12:49:16;2.55;;;2.35;;
8909;SDS011;4490;49.072;8.804;2023-07-29T12:51:41;3.03;;;1.80;;
8909;SDS011;4490;49.072;8.804;2023-07-29T12:54:08;1.85;;;1.75;;
8909;SDS011;4490;49.072;8.804;2023-07-29T12:56:34;2.10;;;1.90;;
8909;SDS011;4490;49.072;8.804;2023-07-29T12:59:00;2.13;;;1.92;;
8909;SDS011;4490;49.072;8.804;2023-07-29T13:01:27;1.95;;;1.85;;
8909;SDS011;4490;49.072;8.804;2023-07-29T13:03:53;2.00;;;1.90;;
8909;SDS011;4490;49.072;8.804;2023-07-29T13:06:19;2.42;;;2.22;;
8909;SDS011;4490;49.072;8.804;2023-07-29T13:08:46;3.30;;;2.03;;
8909;SDS011;4490;49.072;8.804;2023-07-29T13:11:12;1.88;;;1.77;;
8909;SDS011;4490;49.072;8.804;2023-07-29T13:13:39;3.53;;;2.10;;
8909;SDS011;4490;49.072;8.804;2023-07-29T13:16:05;2.00;;;1.90;;
8909;SDS011;4490;49.072;8.804;2023-07-29T13:18:31;2.28;;;2.00;;
8909;SDS011;4490;49.072;8.804;2023-07-29T13:20:57;2.00;;;1.90;;
8909;SDS011;4490;49.072;8.804;2023-07-29T13:23:23;4.38;;;2.05;;
8909;SDS011;4490;49.072;8.804;2023-07-29T13:25:49;1.90;;;1.80;;
8909;SDS011;4490;49.072;8.804;2023-07-29T13:28:15;1.80;;;1.70;;
8909;SDS011;4490;49.072;8.804;2023-07-29T13:30:41;2.13;;;1.92;;
8909;SDS011;4490;49.072;8.804;2023-07-29T13:33:06;3.20;;;1.83;;
8909;SDS011;4490;49.072;8.804;2023-07-29T13:35:32;2.05;;;1.95;;
8909;SDS011;4490;49.072;8.804;2023-07-29T13:37:59;1.80;;;1.70;;
8909;SDS011;4490;49.072;8.804;2023-07-29T13:40:25;1.90;;;1.80;;
8909;SDS011;4490;49.072;8.804;2023-07-29T13:42:50;3.53;;;1.90;;
8909;SDS011;4490;49.072;8.804;2023-07-29T13:45:17;1.70;;;1.60;;
8909;SDS011;4490;49.072;8.804;2023-07-29T13:47:43;2.40;;;1.90;;
8909;SDS011;4490;49.072;8.804;2023-07-29T13:50:08;2.08;;;1.98;;
8909;SDS011;4490;49.072;8.804;2023-07-29T13:52:35;1.80;;;1.70;;
8909;SDS011;4490;49.072;8.804;2023-07-29T13:55:01;2.20;;;2.10;;
8909;SDS011;4490;49.072;8.804;2023-07-29T13:57:27;2.65;;;2.00;;
8909;SDS011;4490;49.072;8.804;2023-07-29T13:59:53;2.17;;;2.03;;
8909;SDS011;4490;49.072;8.804;2023-07-29T14:02:18;2.17;;;2.00;;
8909;SDS011;4490;49.072;8.804;2023-07-29T14:04:44;2.10;;;2.00;;
8909;SDS011;4490;49.072;8.804;2023-07-29T14:07:10;2.10;;;2.00;;
8909;SDS011;4490;49.072;8.804;2023-07-29T14:09:35;2.20;;;1.80;;
8909;SDS011;4490;49.072;8.804;2023-07-29T14:12:02;2.30;;;2.10;;
8909;SDS011;4490;49.072;8.804;2023-07-29T14:14:28;2.17;;;1.90;;
8909;SDS011;4490;49.072;8.804;2023-07-29T14:16:54;2.08;;;1.98;;
8909;SDS011;4490;49.072;8.804;2023-07-29T14:19:20;1.88;;;1.77;;
8909;SDS011;4490;49.072;8.804;2023-07-29T14:21:46;3.15;;;2.08;;
8909;SDS011;4490;49.072;8.804;2023-07-29T14:24:11;2.42;;;2.08;;
8909;SDS011;4490;49.072;8.804;2023-07-29T14:26:37;1.98;;;1.88;;
8909;SDS011;4490;49.072;8.804;2023-07-29T14:29:02;2.55;;;2.05;;
8909;SDS011;4490;49.072;8.804;2023-07-29T14:31:28;2.53;;;1.90;;
8909;SDS011;4490;49.072;8.804;2023-07-29T14:33:53;2.25;;;1.77;;
8909;SDS011;4490;49.072;8.804;2023-07-29T14:36:19;2.35;;;1.70;;
8909;SDS011;4490;49.072;8.804;2023-07-29T14:38:45;2.30;;;2.00;;
8909;SDS011;4490;49.072;8.804;2023-07-29T14:41:10;2.28;;;2.10;;
8909;SDS011;4490;49.072;8.804;2023-07-29T14:43:36;2.13;;;1.98;;
8909;SDS011;4490;49.072;8.804;2023-07-29T14:46:01;2.38;;;2.20;;
8909;SDS011;4490;49.072;8.804;2023-07-29T14:48:27;2.30;;;2.10;;
8909;SDS011;4490;49.072;8.804;2023-07-29T14:50:53;2.75;;;2.20;;
8909;SDS011;4490;49.072;8.804;2023-07-29T14:53:19;2.38;;;2.10;;
8909;SDS011;4490;49.072;8.804;2023-07-29T14:55:45;2.20;;;2.00;;
8909;SDS011;4490;49.072;8.804;2023-07-29T14:58:10;2.00;;;1.90;;
8909;SDS011;4490;49.072;8.804;2023-07-29T15:00:36;2.28;;;2.00;;
8909;SDS011;4490;49.072;8.804;2023-07-29T15:03:02;2.25;;;2.08;;
8909;SDS011;4490;49.072;8.804;2023-07-29T15:05:28;4.47;;;1.90;;
8909;SDS011;4490;49.072;8.804;2023-07-29T15:07:54;2.88;;;2.17;;
8909;SDS011;4490;49.072;8.804;2023-07-29T15:10:19;2.70;;;2.42;;
8909;SDS011;4490;49.072;8.804;2023-07-29T15:12:46;2.40;;;2.20;;
8909;SDS011;4490;49.072;8.804;2023-07-29T15:15:11;2.13;;;2.00;;
8909;SDS011;4490;49.072;8.804;2023-07-29T15:17:37;3.85;;;2.10;;
8909;SDS011;4490;49.072;8.804;2023-07-29T15:20:03;3.65;;;2.20;;
8909;SDS011;4490;49.072;8.804;2023-07-29T15:22:29;2.17;;;2.00;;
8909;SDS011;4490;49.072;8.804;2023-07-29T15:24:56;2.33;;;2.13;;
8909;SDS011;4490;49.072;8.804;2023-07-29T15:27:28;2.20;;;2.10;;
8909;SDS011;4490;49.072;8.804;2023-07-29T15:29:54;2.33;;;2.15;;
8909;SDS011;4490;49.072;8.804;2023-07-29T15:32:20;2.80;;;2.17;;
8909;SDS011;4490;49.072;8.804;2023-07-29T15:34:47;2.22;;;2.00;;
8909;SDS011;4490;49.072;8.804;2023-07-29T15:37:13;2.63;;;2.08;;